Weather at Bob Hope Airport

Public forecast

Using degrees Fahrenheit for public forecast. Weather courtesy of forecast.io.

Current aviation weather report (METAR) for Bob Hope Airport

Retrieved 2022/01/18 01:53 UTC (21 minutes ago):

KBUR 180153Z 01003KT 8SM BKN024 OVC041 16/12 A3003 RMK AO2 SLP159 T01560122

Aviation forecast (TAF) for Bob Hope Airport

Retrieved 2022-01-18 00:33 UTC (2 hours ago):

TAF KBUR 172330Z 1800/1824 24006KT P6SM -SHRA BKN025 OVC035 FM180200 VRB03KT 6SM -SHRA OVC025 FM181200 VRB03KT 6SM BR OVC015 FM181900 VRB03KT P6SM SCT015 BKN025 FM182200 17007KT P6SM SCT025 BKN040